Time;durP1;ratioP1;P1;durP2;ratioP2;P2;SDS_P1;SDS_P2;PMS_P1;PMS_P2;Temp;Humidity;BMP_temperature;BMP_pressure;BME280_temperature;BME280_humidity;BME280_pressure;Samples;Min_cycle;Max_cycle;Signal;HPM_P1;HPM_P2
2023/12/01 00:00:26;;;;;;;67.10;39.70;;;;;;;-1.60;86.56;99262.80;108655;282;39839;-68
2023/12/01 00:03:25;;;;;;;73.90;41.70;;;;;;;-1.62;86.67;99260.06;108597;282;154557;-70
2023/12/01 00:06:01;;;;;;;72.90;42.50;;;;;;;-1.64;86.78;99257.17;108651;282;38177;-73
2023/12/01 00:08:35;;;;;;;77.60;43.10;;;;;;;-1.68;86.70;99254.48;108731;282;38444;-70
2023/12/01 00:11:14;;;;;;;79.30;44.20;;;;;;;-1.72;86.72;99256.02;108484;282;153743;-71
2023/12/01 00:13:51;;;;;;;80.70;43.90;;;;;;;-1.77;86.73;99258.45;108766;282;38495;-73
2023/12/01 00:16:25;;;;;;;79.00;43.90;;;;;;;-1.79;86.64;99254.19;108521;282;155617;-70
2023/12/01 00:19:00;;;;;;;74.60;41.20;;;;;;;-1.79;86.67;99253.69;108665;282;38249;-69
2023/12/01 00:21:36;;;;;;;71.90;41.70;;;;;;;-1.82;86.46;99263.79;108575;282;154353;-68
2023/12/01 00:24:10;;;;;;;82.50;46.50;;;;;;;-1.86;86.52;99269.10;108599;282;39080;-71
2023/12/01 00:26:47;;;;;;;91.70;50.30;;;;;;;-1.91;86.46;99266.39;108725;282;38421;-71
2023/12/01 00:29:21;;;;;;;91.50;48.90;;;;;;;-1.96;86.47;99271.05;108553;284;38470;-71
2023/12/01 00:31:54;;;;;;;82.40;47.30;;;;;;;-2.03;86.50;99269.89;108582;284;38178;-71
2023/12/01 00:34:28;;;;;;;81.30;44.20;;;;;;;-2.12;86.36;99272.65;108498;283;155670;-70
2023/12/01 00:37:04;;;;;;;75.60;42.60;;;;;;;-2.17;86.62;99273.70;108594;283;39594;-70
2023/12/01 00:39:42;;;;;;;72.80;41.20;;;;;;;-2.17;86.78;99273.02;108498;282;154854;-71
2023/12/01 00:42:17;;;;;;;76.90;42.50;;;;;;;-2.16;86.78;99272.67;108729;282;39146;-73
2023/12/01 00:47:41;;;;;;;89.60;48.40;;;;;;;-2.14;87.06;99282.06;108574;284;39206;-70
2023/12/01 00:50:15;;;;;;;96.90;51.00;;;;;;;-2.16;87.05;99278.99;108602;284;38849;-73
2023/12/01 00:52:51;;;;;;;93.10;50.70;;;;;;;-2.16;87.02;99281.23;108460;282;154628;-71
2023/12/01 00:55:24;;;;;;;80.90;44.20;;;;;;;-2.16;87.00;99280.54;108703;282;38642;-70
2023/12/01 00:58:01;;;;;;;79.50;41.10;;;;;;;-2.14;87.13;99273.67;108645;282;154413;-70
2023/12/01 01:00:36;;;;;;;76.30;43.90;;;;;;;-2.13;87.11;99275.57;108780;282;38363;-70
2023/12/01 01:03:09;;;;;;;82.40;45.60;;;;;;;-2.13;87.23;99278.98;108585;282;154148;-70
2023/12/01 01:05:45;;;;;;;88.30;46.40;;;;;;;-2.14;87.31;99281.55;108619;283;38828;-73
2023/12/01 01:08:26;;;;;;;76.00;41.40;;;;;;;-2.15;87.12;99278.83;108607;283;38463;-70
2023/12/01 01:11:02;;;;;;;76.10;42.20;;;;;;;-2.14;87.08;99276.59;108432;283;154262;-72
2023/12/01 01:13:52;;;;;;;71.60;40.90;;;;;;;-2.11;87.36;99276.25;108606;284;38660;-71
2023/12/01 01:16:26;;;;;;;74.10;40.90;;;;;;;-2.10;87.23;99274.69;108600;282;154344;-71
2023/12/01 01:19:01;;;;;;;73.40;41.50;;;;;;;-2.14;87.22;99274.02;108739;282;40028;-71
2023/12/01 01:21:36;;;;;;;77.70;40.80;;;;;;;-2.16;87.20;99274.73;108544;282;155571;-73
2023/12/01 01:24:12;;;;;;;76.20;42.30;;;;;;;-2.20;87.28;99273.71;108560;283;39622;-72
2023/12/01 01:26:46;;;;;;;73.20;40.80;;;;;;;-2.20;87.24;99272.34;108547;284;41388;-69
2023/12/01 01:29:20;;;;;;;73.90;39.40;;;;;;;-2.19;87.19;99268.25;108556;284;40200;-69
2023/12/01 01:31:56;;;;;;;74.20;42.00;;;;;;;-2.20;87.14;99258.51;108544;283;38447;-69
2023/12/01 01:34:29;;;;;;;76.30;42.80;;;;;;;-2.23;87.22;99258.85;108589;282;153978;-72
2023/12/01 01:37:07;;;;;;;75.20;41.80;;;;;;;-2.25;87.17;99256.48;108744;282;38232;-72
2023/12/01 01:39:41;;;;;;;77.50;41.50;;;;;;;-2.29;87.29;99254.63;108588;282;154220;-71
2023/12/01 01:42:15;;;;;;;75.90;41.10;;;;;;;-2.32;87.29;99252.41;108571;283;39434;-71
2023/12/01 01:44:52;;;;;;;72.40;40.00;;;;;;;-2.32;87.21;99252.41;108619;283;38703;-71
2023/12/01 01:47:29;;;;;;;72.30;40.80;;;;;;;-2.33;87.22;99254.80;108595;282;39219;-72
2023/12/01 01:50:07;;;;;;;79.60;43.00;;;;;;;-2.38;87.16;99256.54;108693;282;38233;-71
2023/12/01 01:52:43;;;;;;;79.70;43.10;;;;;;;-2.45;87.02;99264.59;108625;282;153956;-69
2023/12/01 01:55:17;;;;;;;79.10;42.50;;;;;;;-2.51;87.05;99273.82;108727;282;39769;-72
2023/12/01 01:57:51;;;;;;;75.80;40.20;;;;;;;-2.56;87.13;99275.38;108598;282;154517;-72
2023/12/01 02:00:27;;;;;;;73.90;40.20;;;;;;;-2.65;86.99;99274.37;108612;283;38806;-71
2023/12/01 02:03:02;;;;;;;72.60;38.90;;;;;;;-2.73;86.79;99270.13;108448;283;156158;-71
2023/12/01 02:05:36;;;;;;;75.50;40.60;;;;;;;-2.79;86.86;99270.81;108578;283;39335;-69
2023/12/01 02:08:27;;;;;;;72.40;40.10;;;;;;;-2.86;86.81;99267.23;108565;283;38805;-71
2023/12/01 02:11:02;;;;;;;71.30;40.60;;;;;;;-2.94;86.85;99265.05;108517;283;154553;-72
2023/12/01 02:13:37;;;;;;;71.50;40.00;;;;;;;-3.03;87.02;99263.35;108568;284;38743;-71
2023/12/01 02:16:13;;;;;;;74.60;39.70;;;;;;;-3.14;86.62;99269.66;108460;283;154089;-69
2023/12/01 02:18:49;;;;;;;73.10;39.90;;;;;;;-3.26;86.58;99269.15;108618;283;39469;-68
2023/12/01 02:21:26;;;;;;;73.80;38.80;;;;;;;-3.32;86.67;99274.29;108487;283;154804;-69
2023/12/01 02:24:00;;;;;;;66.70;37.90;;;;;;;-3.36;86.73;99273.93;108555;283;38345;-70
2023/12/01 02:26:34;;;;;;;74.60;39.60;;;;;;;-3.42;86.83;99278.02;108586;284;38667;-70
2023/12/01 02:29:08;;;;;;;74.70;40.20;;;;;;;-3.46;86.94;99280.92;108441;283;154147;-72
2023/12/01 02:31:45;;;;;;;79.20;41.20;;;;;;;-3.50;87.03;99279.20;108591;283;38579;-71
2023/12/01 02:34:21;;;;;;;80.10;40.80;;;;;;;-3.56;86.93;99279.03;108453;283;154115;-71
2023/12/01 02:36:58;;;;;;;76.30;40.10;;;;;;;-3.65;86.75;99276.29;108568;283;38481;-71
2023/12/01 02:39:36;;;;;;;70.70;39.40;;;;;;;-3.76;86.57;99277.47;108482;283;155791;-70
2023/12/01 02:42:10;;;;;;;70.40;38.20;;;;;;;-3.84;86.45;99271.82;108542;283;38444;-68
2023/12/01 02:44:45;;;;;;;74.40;39.20;;;;;;;-3.90;86.54;99270.27;108561;284;38883;-72
2023/12/01 02:47:19;;;;;;;68.90;38.00;;;;;;;-4.00;86.19;99270.25;108435;283;153749;-70
2023/12/01 02:50:00;;;;;;;74.50;40.70;;;;;;;-4.10;86.38;99267.33;107888;283;176433;-68
2023/12/01 02:52:34;;;;;;;;;;;;;;;-4.16;86.39;99266.95;108440;283;154939;-69
2023/12/01 02:55:13;;;;;;;74.50;38.90;;;;;;;-4.29;86.56;99269.46;108552;283;39705;-68
2023/12/01 02:57:49;;;;;;;77.00;41.20;;;;;;;-4.38;86.53;99267.56;108512;283;155938;-68
2023/12/01 03:00:26;;;;;;;74.50;39.80;;;;;;;-4.45;86.67;99270.09;108572;283;40107;-70
2023/12/01 03:03:00;;;;;;;72.10;38.30;;;;;;;-4.52;86.42;99274.80;108485;284;155827;-69
2023/12/01 03:05:34;;;;;;;70.80;38.50;;;;;;;-4.57;86.47;99273.25;108584;283;38191;-71
2023/12/01 03:08:09;;;;;;;72.50;38.80;;;;;;;-4.59;86.67;99278.35;108605;283;38315;-72
2023/12/01 03:10:48;;;;;;;74.60;41.30;;;;;;;-4.61;86.75;99281.56;108438;283;153884;-70
2023/12/01 03:13:21;;;;;;;;;;;;;;;-4.71;86.46;99289.17;108560;283;39436;-70
2023/12/01 03:15:56;;;;;;;73.80;40.10;;;;;;;-4.86;86.52;99293.34;108438;284;140199;-72
2023/12/01 03:18:31;;;;;;;82.30;40.50;;;;;;;-4.92;86.61;99298.05;108591;284;38817;-71
2023/12/01 03:21:12;;;;;;;75.70;40.20;;;;;;;-4.98;86.49;99301.59;108431;283;155151;-71
2023/12/01 03:23:49;;;;;;;70.70;39.40;;;;;;;-5.04;86.38;99308.85;108624;282;39935;-70
2023/12/01 03:26:24;;;;;;;72.70;38.70;;;;;;;-5.13;86.29;99308.77;108717;282;38168;-68
2023/12/01 03:28:58;;;;;;;73.00;41.50;;;;;;;-5.16;86.45;99308.41;108493;282;154391;-71
2023/12/01 03:31:32;;;;;;;67.70;37.50;;;;;;;-5.18;86.63;99304.84;108584;282;38727;-71
2023/12/01 03:34:11;;;;;;;70.90;39.50;;;;;;;-5.20;86.61;99304.81;108526;282;155519;-68
2023/12/01 03:36:46;;;;;;;76.60;41.70;;;;;;;-5.26;86.37;99300.36;108680;283;38660;-70
2023/12/01 03:39:19;;;;;;;75.00;41.10;;;;;;;-5.34;86.22;99303.17;108609;283;155403;-73
2023/12/01 03:41:56;;;;;;;72.80;39.80;;;;;;;-5.42;86.10;99300.71;108602;283;38313;-72
2023/12/01 03:44:32;;;;;;;75.40;40.90;;;;;;;-5.49;85.94;99305.91;108690;274;39613;-70
2023/12/01 03:47:08;;;;;;;78.30;42.70;;;;;;;-5.51;86.11;99310.83;108429;282;154965;-70
2023/12/01 03:49:44;;;;;;;79.80;41.80;;;;;;;-5.53;86.24;99309.96;108567;282;41552;-69
2023/12/01 03:52:27;;;;;;;81.20;43.50;;;;;;;-5.54;86.32;99315.38;108536;282;155189;-69
2023/12/01 03:55:04;;;;;;;81.00;43.60;;;;;;;-5.58;86.32;99316.03;108693;282;38258;-68
2023/12/01 03:57:42;;;;;;;82.60;42.40;;;;;;;-5.63;86.31;99316.14;108643;282;154352;-68
2023/12/01 04:00:22;;;;;;;78.20;42.70;;;;;;;-5.70;86.16;99319.31;108738;282;38817;-68
2023/12/01 04:03:06;;;;;;;80.00;42.40;;;;;;;-5.77;86.01;99324.34;108730;283;39918;-69
2023/12/01 04:05:45;;;;;;;69.30;37.70;;;;;;;-5.83;85.91;99321.89;108559;282;38448;-71
2023/12/01 04:08:23;;;;;;;76.00;39.50;;;;;;;-5.85;85.99;99315.75;108688;282;38956;-72
2023/12/01 04:11:00;;;;;;;78.00;41.30;;;;;;;-5.86;86.01;99315.56;108572;282;154973;-71
2023/12/01 04:13:35;;;;;;;73.00;41.00;;;;;;;-5.90;86.02;99316.39;108739;283;38500;-70
2023/12/01 04:16:12;;;;;;;77.70;42.00;;;;;;;-5.95;85.94;99313.80;108511;282;155403;-71
2023/12/01 04:18:46;;;;;;;81.30;43.10;;;;;;;-6.00;86.08;99313.41;108728;282;38301;-71
2023/12/01 04:21:21;;;;;;;79.50;41.70;;;;;;;-6.08;85.88;99312.14;108587;282;154402;-72
2023/12/01 04:23:55;;;;;;;81.00;42.20;;;;;;;-6.14;86.00;99309.52;108726;282;38761;-70
2023/12/01 04:26:33;;;;;;;76.50;41.80;;;;;;;-6.15;86.11;99307.45;108667;283;38347;-71
2023/12/01 04:29:11;;;;;;;74.50;41.70;;;;;;;-6.12;86.30;99301.72;108626;282;155477;-68
2023/12/01 04:31:49;;;;;;;82.00;42.00;;;;;;;-6.08;86.59;99299.23;108573;282;176454;-68
2023/12/01 04:34:26;;;;;;;88.70;44.70;;;;;;;-6.02;87.03;99292.67;108642;282;154250;-70
2023/12/01 04:37:09;;;;;;;91.50;49.20;;;;;;;-5.93;87.76;99291.23;108792;281;38074;-72
2023/12/01 04:39:43;;;;;;;91.60;47.00;;;;;;;-5.85;88.12;99288.08;108693;281;154705;-70
2023/12/01 04:42:18;;;;;;;91.40;46.70;;;;;;;-5.78;88.37;99284.58;108714;282;38500;-70
2023/12/01 04:44:52;;;;;;;89.00;46.90;;;;;;;-5.65;88.41;99289.11;108710;282;39478;-69
2023/12/01 04:47:26;;;;;;;88.40;45.90;;;;;;;-5.52;88.67;99291.96;108620;282;154099;-71
2023/12/01 04:50:12;;;;;;;91.30;46.70;;;;;;;-5.40;88.94;99294.95;108771;282;38176;-73
2023/12/01 04:52:47;;;;;;;98.50;46.10;;;;;;;-5.32;88.97;99291.96;108572;282;154024;-70
2023/12/01 04:55:25;;;;;;;89.90;45.30;;;;;;;-5.26;89.11;99290.99;108688;282;39107;-71
2023/12/01 04:58:02;;;;;;;95.00;47.90;;;;;;;-5.22;89.20;99295.45;108585;282;156036;-71
2023/12/01 05:00:36;;;;;;;94.90;46.80;;;;;;;-5.14;89.46;99302.14;108729;282;38237;-73
2023/12/01 05:03:12;;;;;;;91.20;45.40;;;;;;;-5.08;89.19;99305.08;108459;282;154908;-70
2023/12/01 05:05:46;;;;;;;90.20;44.30;;;;;;;-5.02;89.28;99312.27;108565;282;38147;-69
2023/12/01 05:08:27;;;;;;;85.00;45.50;;;;;;;-4.98;89.17;99312.63;108727;282;38235;-69
2023/12/01 05:11:08;;;;;;;89.90;44.90;;;;;;;-4.97;88.95;99312.64;108608;282;154179;-70
2023/12/01 05:13:44;;;;;;;83.40;43.10;;;;;;;-4.96;88.90;99312.14;108725;282;38186;-71
2023/12/01 05:16:18;;;;;;;89.70;42.90;;;;;;;-4.96;88.98;99309.43;108564;282;155287;-72
2023/12/01 05:18:52;;;;;;;84.10;42.70;;;;;;;-4.92;88.90;99314.23;108767;282;38152;-70
2023/12/01 05:21:26;;;;;;;84.80;41.90;;;;;;;-4.91;88.66;99313.71;108564;282;155010;-70
2023/12/01 05:24:00;;;;;;;88.00;43.40;;;;;;;-4.88;88.84;99315.77;108751;282;38197;-72
2023/12/01 05:26:34;;;;;;;94.60;43.50;;;;;;;-4.87;88.74;99314.25;108616;282;38239;-71
2023/12/01 05:29:13;;;;;;;86.40;42.70;;;;;;;-4.86;88.64;99315.77;108575;282;155294;-70
2023/12/01 05:31:47;;;;;;;85.80;42.60;;;;;;;-4.88;88.59;99320.36;108716;282;38664;-70
2023/12/01 05:34:22;;;;;;;80.10;40.30;;;;;;;-4.91;88.56;99319.83;108599;282;154831;-67
2023/12/01 05:37:00;;;;;;;79.00;40.90;;;;;;;-4.89;88.57;99328.00;108587;282;38302;-68
2023/12/01 05:39:40;;;;;;;81.10;40.60;;;;;;;-4.88;88.54;99327.84;108607;282;154530;-68
2023/12/01 05:42:15;;;;;;;83.20;41.70;;;;;;;-4.81;89.09;99326.37;108702;282;38429;-69
2023/12/01 05:44:53;;;;;;;87.10;42.40;;;;;;;-4.78;88.97;99328.60;108731;282;38192;-71
2023/12/01 05:47:27;;;;;;;89.60;43.40;;;;;;;-4.79;88.78;99331.83;108623;282;153819;-72
2023/12/01 05:50:01;;;;;;;88.00;42.60;;;;;;;-4.80;88.75;99338.45;108706;282;38263;-72
2023/12/01 05:52:36;;;;;;;87.00;43.50;;;;;;;-4.80;88.87;99345.09;108637;282;154836;-72
2023/12/01 05:55:17;;;;;;;79.80;40.50;;;;;;;-4.79;88.70;99349.69;108749;282;38368;-74
2023/12/01 05:57:53;;;;;;;82.20;41.70;;;;;;;-4.77;88.51;99356.84;108600;282;155175;-72
2023/12/01 06:00:29;;;;;;;82.40;41.50;;;;;;;-4.75;88.45;99362.30;108774;282;38509;-72
2023/12/01 06:03:11;;;;;;;84.10;42.70;;;;;;;-4.72;88.77;99367.79;108673;282;38280;-71
2023/12/01 06:05:48;;;;;;;77.40;39.90;;;;;;;-4.69;88.91;99374.95;108639;282;176343;-70
2023/12/01 06:08:25;;;;;;;78.60;40.30;;;;;;;-4.72;88.59;99383.42;108564;282;38332;-71
2023/12/01 06:10:59;;;;;;;77.40;40.10;;;;;;;-4.73;88.58;99387.51;108616;282;154851;-70
2023/12/01 06:13:33;;;;;;;77.00;37.90;;;;;;;-4.68;88.88;99389.58;108745;282;38513;-72
2023/12/01 06:16:09;;;;;;;79.50;40.90;;;;;;;-4.65;88.56;99395.21;108589;282;155299;-73
2023/12/01 06:18:47;;;;;;;81.10;42.00;;;;;;;-4.65;88.56;99399.13;108792;282;38982;-71
2023/12/01 06:21:21;;;;;;;85.60;44.60;;;;;;;-4.64;88.44;99406.80;108574;282;155381;-71
2023/12/01 06:23:57;;;;;;;85.80;45.20;;;;;;;-4.64;88.39;99405.94;108837;282;38204;-70
2023/12/01 06:26:31;;;;;;;82.00;42.40;;;;;;;-4.64;88.60;99411.89;108726;282;39827;-71
2023/12/01 06:29:06;;;;;;;83.70;41.40;;;;;;;-4.61;88.89;99418.40;108658;282;154381;-71
2023/12/01 06:31:40;;;;;;;86.30;42.30;;;;;;;-4.62;88.66;99420.92;108650;282;38277;-73
2023/12/01 06:34:17;;;;;;;82.20;42.40;;;;;;;-4.60;88.54;99422.98;108605;282;155531;-69
2023/12/01 06:36:58;;;;;;;80.80;40.30;;;;;;;-4.55;88.51;99426.77;108715;282;39663;-69
2023/12/01 06:39:32;;;;;;;86.20;42.80;;;;;;;-4.55;88.19;99431.72;108569;283;154142;-73
2023/12/01 06:42:08;;;;;;;88.10;44.80;;;;;;;-4.56;88.28;99423.36;108701;283;38283;-73
2023/12/01 06:44:43;;;;;;;89.10;44.50;;;;;;;-4.58;88.13;99423.19;108767;282;39002;-72
2023/12/01 06:47:19;;;;;;;95.30;45.60;;;;;;;-4.62;88.02;99419.07;108571;283;154167;-71
2023/12/01 06:49:53;;;;;;;93.20;45.70;;;;;;;-4.65;88.26;99413.77;108754;283;38270;-74
2023/12/01 06:52:27;;;;;;;86.80;42.70;;;;;;;-4.65;88.25;99410.02;108590;283;156022;-73
2023/12/01 06:55:05;;;;;;;76.60;40.70;;;;;;;-4.67;87.86;99410.85;108574;283;173606;-71
2023/12/01 06:57:40;;;;;;;69.40;35.60;;;;;;;-4.64;88.23;99414.11;108577;282;155612;-70
2023/12/01 07:00:29;;;;;;;74.50;38.40;;;;;;;-4.63;88.04;99420.25;108747;283;39983;-73
2023/12/01 07:03:07;;;;;;;74.50;38.60;;;;;;;-4.66;87.99;99422.61;108705;283;38449;-73
2023/12/01 07:05:44;;;;;;;71.50;38.30;;;;;;;-4.67;88.01;99424.80;108511;284;38551;-68
2023/12/01 07:08:19;;;;;;;75.20;37.10;;;;;;;-4.69;87.90;99425.99;108597;284;39917;-71
2023/12/01 07:10:54;;;;;;;67.40;33.20;;;;;;;-4.70;87.85;99423.60;108637;282;155072;-72
2023/12/01 07:13:29;;;;;;;62.90;34.80;;;;;;;-4.74;87.52;99422.38;108737;281;173655;-71
2023/12/01 07:16:09;;;;;;;64.20;33.60;;;;;;;-4.74;87.67;99413.35;108652;281;154727;-72
2023/12/01 07:18:46;;;;;;;68.10;34.70;;;;;;;-4.72;87.69;99412.69;108626;283;38255;-69
2023/12/01 07:21:21;;;;;;;71.00;36.20;;;;;;;-4.73;87.73;99413.19;108428;283;154284;-71
2023/12/01 07:24:00;;;;;;;68.60;35.50;;;;;;;-4.74;87.70;99410.98;108702;282;38549;-68
2023/12/01 07:26:36;;;;;;;73.10;36.80;;;;;;;-4.79;87.41;99409.91;108739;282;38266;-68
2023/12/01 07:29:10;;;;;;;75.90;36.80;;;;;;;-4.81;87.58;99415.17;108570;282;158969;-70
2023/12/01 07:31:46;;;;;;;71.20;37.20;;;;;;;-4.80;87.63;99413.82;108656;282;38323;-70
2023/12/01 07:34:20;;;;;;;67.20;35.10;;;;;;;-4.76;87.75;99415.05;108546;282;154787;-71
2023/12/01 07:36:54;;;;;;;70.60;36.40;;;;;;;-4.75;87.55;99413.01;108674;282;39378;-72
2023/12/01 07:39:29;;;;;;;69.90;37.50;;;;;;;-4.76;87.61;99411.64;108604;283;155316;-75
2023/12/01 07:42:03;;;;;;;77.60;38.20;;;;;;;-4.75;87.75;99413.01;108699;282;38212;-71
2023/12/01 07:44:39;;;;;;;70.00;35.00;;;;;;;-4.75;87.78;99423.55;108709;283;38194;-70
2023/12/01 07:47:16;;;;;;;66.70;34.40;;;;;;;-4.76;87.96;99430.88;108631;282;156463;-71
2023/12/01 07:49:52;;;;;;;66.30;35.80;;;;;;;-4.74;87.71;99430.52;108709;283;38927;-69
2023/12/01 07:52:29;;;;;;;66.70;34.00;;;;;;;-4.73;87.74;99431.56;108609;282;154890;-71
2023/12/01 07:55:06;;;;;;;66.20;34.20;;;;;;;-4.71;87.73;99430.23;108624;283;38510;-68
2023/12/01 07:57:40;;;;;;;67.00;34.40;;;;;;;-4.73;87.38;99434.46;108602;282;154076;-70
2023/12/01 08:00:18;;;;;;;72.70;36.00;;;;;;;-4.72;87.78;99433.96;108730;282;38220;-73
2023/12/01 08:02:56;;;;;;;72.10;34.80;;;;;;;-4.72;87.64;99436.34;108703;282;38244;-72
2023/12/01 08:05:33;;;;;;;71.00;35.60;;;;;;;-4.72;87.64;99439.73;108553;282;154779;-73
2023/12/01 08:08:08;;;;;;;63.50;32.40;;;;;;;-4.70;87.80;99445.38;108712;282;38340;-73
2023/12/01 08:10:47;;;;;;;55.90;29.70;;;;;;;-4.71;87.23;99453.02;108578;282;154310;-69
2023/12/01 08:13:24;;;;;;;57.20;29.10;;;;;;;-4.80;86.62;99454.81;108674;282;38163;-70
2023/12/01 08:16:01;;;;;;;59.50;30.00;;;;;;;-4.86;86.45;99458.34;108618;282;154890;-70
2023/12/01 08:18:35;;;;;;;57.60;29.90;;;;;;;-4.89;86.77;99457.11;108690;282;38549;-71
2023/12/01 08:21:11;;;;;;;54.40;28.60;;;;;;;-4.94;86.61;99456.39;108718;282;39856;-72
2023/12/01 08:23:49;;;;;;;54.10;26.30;;;;;;;-5.00;86.48;99456.84;108609;282;39752;-71
2023/12/01 08:26:26;;;;;;;52.00;27.80;;;;;;;-5.06;86.21;99454.57;108722;282;38214;-71
2023/12/01 08:29:00;;;;;;;53.20;27.90;;;;;;;-5.12;86.00;99451.77;108654;282;154668;-72
2023/12/01 08:31:39;;;;;;;46.60;25.90;;;;;;;-5.15;86.05;99449.04;108735;282;38346;-71
2023/12/01 08:34:13;;;;;;;51.00;26.20;;;;;;;-5.14;86.39;99454.66;108633;282;154028;-69
2023/12/01 08:36:48;;;;;;;50.70;26.70;;;;;;;-5.14;86.30;99456.36;108659;282;38195;-71
2023/12/01 08:39:23;;;;;;;49.30;25.70;;;;;;;-5.17;86.28;99461.09;108603;282;155035;-69
2023/12/01 08:42:00;;;;;;;54.10;26.30;;;;;;;-5.16;86.35;99466.54;108722;282;38219;-70
2023/12/01 08:44:34;;;;;;;55.20;27.20;;;;;;;-5.24;86.18;99470.02;108701;282;38648;-70
2023/12/01 08:47:19;;;;;;;54.90;28.00;;;;;;;-5.25;86.52;99471.20;108584;282;155999;-72
2023/12/01 08:49:56;;;;;;;49.00;26.70;;;;;;;-5.23;86.35;99473.27;108707;282;38193;-71
2023/12/01 08:52:31;;;;;;;48.10;25.60;;;;;;;-5.21;86.43;99470.41;108586;282;155439;-71
2023/12/01 08:55:06;;;;;;;51.70;26.40;;;;;;;-5.22;86.22;99472.09;108720;282;38420;-71
2023/12/01 08:57:44;;;;;;;50.20;26.40;;;;;;;-5.24;86.19;99479.20;108591;282;155234;-70
2023/12/01 09:00:25;;;;;;;51.50;27.10;;;;;;;-5.24;86.40;99484.81;108774;282;39514;-71
2023/12/01 09:03:01;;;;;;;49.50;25.80;;;;;;;-5.23;86.55;99485.17;108586;282;176355;-71
2023/12/01 09:05:36;;;;;;;53.10;26.90;;;;;;;-5.24;86.28;99480.06;108614;282;154775;-73
2023/12/01 09:08:12;;;;;;;55.30;28.40;;;;;;;-5.24;86.13;99479.05;108719;282;38156;-71
2023/12/01 09:10:47;;;;;;;48.90;26.10;;;;;;;-5.24;85.92;99477.00;108607;282;154210;-71
2023/12/01 09:13:22;;;;;;;51.20;25.50;;;;;;;-5.25;85.82;99477.33;108769;281;38639;-70
2023/12/01 09:15:57;;;;;;;51.50;27.20;;;;;;;-5.24;85.88;99483.46;108626;281;154168;-71
2023/12/01 09:18:31;;;;;;;53.00;26.40;;;;;;;-5.27;85.75;99487.66;108756;282;39489;-71
2023/12/01 09:21:08;;;;;;;54.60;27.00;;;;;;;-5.33;85.61;99488.62;108697;282;39185;-71
2023/12/01 09:23:47;;;;;;;52.80;26.60;;;;;;;-5.41;85.52;99498.56;108596;282;38871;-71
2023/12/01 09:26:22;;;;;;;56.50;26.40;;;;;;;-5.45;85.57;99503.94;108670;282;38259;-72
2023/12/01 09:28:57;;;;;;;51.10;26.80;;;;;;;-5.46;85.67;99505.80;108482;282;155001;-71
2023/12/01 09:31:45;;;;;;;49.70;25.00;;;;;;;-5.40;86.20;99504.69;108679;282;38393;-72
2023/12/01 09:34:23;;;;;;;47.70;25.90;;;;;;;-5.35;86.17;99509.34;108592;282;153878;-71
2023/12/01 09:36:59;;;;;;;48.30;25.00;;;;;;;-5.34;86.21;99518.87;108737;282;38815;-73
2023/12/01 09:39:37;;;;;;;48.70;25.20;;;;;;;-5.33;86.20;99505.11;108491;282;176343;-72
2023/12/01 09:42:17;;;;;;;59.50;27.70;;;;;;;-5.37;86.05;99503.70;108665;282;38611;-71
2023/12/01 09:44:55;;;;;;;49.90;25.80;;;;;;;-5.35;86.41;99504.08;108732;282;38411;-72
2023/12/01 09:47:31;;;;;;;50.30;25.30;;;;;;;-5.33;86.33;99500.69;108531;282;176353;-70
2023/12/01 09:50:11;;;;;;;44.30;24.20;;;;;;;-5.28;86.52;99502.44;108696;282;38241;-70
2023/12/01 09:52:46;;;;;;;52.50;27.00;;;;;;;-5.21;86.70;99500.16;108621;282;154465;-72
2023/12/01 09:55:21;;;;;;;52.20;26.60;;;;;;;-5.17;86.55;99498.17;108684;282;39705;-69
2023/12/01 09:57:56;;;;;;;53.70;27.80;;;;;;;-5.12;86.68;99495.98;108650;275;154137;-69
2023/12/01 10:00:30;;;;;;;54.80;27.50;;;;;;;-5.09;86.68;99501.98;108781;282;38231;-73
2023/12/01 10:03:07;;;;;;;55.10;29.00;;;;;;;-5.06;86.84;99502.36;108748;282;38303;-70
2023/12/01 10:05:52;;;;;;;57.80;26.30;;;;;;;-5.00;86.87;99501.05;108656;282;156069;-71
2023/12/01 10:08:33;;;;;;;52.50;27.20;;;;;;;-4.95;86.60;99500.94;108706;282;38289;-70
2023/12/01 10:11:23;;;;;;;50.80;25.10;;;;;;;-4.95;86.30;99504.34;108661;282;154288;-70
2023/12/01 10:14:02;;;;;;;55.30;28.00;;;;;;;-4.95;86.47;99502.98;108591;282;38594;-68
2023/12/01 10:16:40;;;;;;;56.40;27.50;;;;;;;-4.86;86.84;99499.84;108638;282;155295;-70
2023/12/01 10:19:14;;;;;;;55.60;26.90;;;;;;;-4.82;86.71;99496.64;108743;282;38635;-71
2023/12/01 10:21:51;;;;;;;56.40;27.40;;;;;;;-4.81;86.55;99496.31;108595;282;154197;-71
2023/12/01 10:24:28;;;;;;;53.60;27.10;;;;;;;-4.78;86.56;99499.59;108748;282;38557;-72
2023/12/01 10:27:05;;;;;;;54.30;28.10;;;;;;;-4.73;86.55;99506.61;108694;282;38287;-72
2023/12/01 10:29:44;;;;;;;57.40;27.50;;;;;;;-4.68;86.54;99505.46;108490;282;154751;-69
2023/12/01 10:32:21;;;;;;;54.40;27.40;;;;;;;-4.66;86.60;99511.77;108673;282;38821;-70
2023/12/01 10:35:02;;;;;;;56.60;28.60;;;;;;;-4.64;86.61;99514.67;108664;282;155396;-71
2023/12/01 10:37:40;;;;;;;56.40;28.40;;;;;;;-4.63;86.66;99516.58;108733;282;38701;-71
2023/12/01 10:40:16;;;;;;;52.60;25.80;;;;;;;-4.63;86.71;99511.30;108428;282;155344;-71
2023/12/01 10:42:52;;;;;;;51.10;25.10;;;;;;;-4.60;86.69;99514.55;108741;282;39472;-72
2023/12/01 10:45:27;;;;;;;48.10;24.70;;;;;;;-4.61;86.25;99519.64;108632;282;156321;-70
2023/12/01 10:48:01;;;;;;;51.00;25.80;;;;;;;-4.57;86.11;99521.05;107990;282;816085;-72
2023/12/01 10:50:40;;;;;;;52.20;26.70;;;;;;;-4.56;86.09;99513.39;108608;282;39311;-73
2023/12/01 10:53:15;;;;;;;54.00;26.90;;;;;;;-4.57;85.87;99506.40;108584;282;154960;-71
2023/12/01 10:55:50;;;;;;;58.80;29.50;;;;;;;-4.61;85.82;99500.23;108601;283;176291;-69
2023/12/01 10:58:29;;;;;;;56.70;28.70;;;;;;;-4.63;86.03;99503.81;108591;282;154358;-71
2023/12/01 11:01:04;;;;;;;60.00;27.50;;;;;;;-4.66;86.01;99506.34;108676;282;38869;-74
2023/12/01 11:03:42;;;;;;;62.60;27.80;;;;;;;-4.68;86.26;99505.28;108551;282;154992;-71
2023/12/01 11:06:28;;;;;;;58.70;29.60;;;;;;;-4.64;86.06;99503.11;108682;283;38144;-72
2023/12/01 11:09:11;;;;;;;58.60;27.60;;;;;;;-4.65;85.98;99503.09;108629;283;38944;-71
2023/12/01 11:12:07;;;;;;;56.60;28.40;;;;;;;-4.59;86.24;99502.30;108507;283;153929;-72
2023/12/01 11:14:42;;;;;;;58.60;26.80;;;;;;;-4.61;85.85;99503.14;108736;282;38268;-72
2023/12/01 11:17:16;;;;;;;55.60;26.60;;;;;;;-4.61;86.05;99503.98;108649;282;155465;-71
2023/12/01 11:19:50;;;;;;;56.10;27.70;;;;;;;-4.65;85.99;99502.94;108757;282;38431;-72
2023/12/01 11:22:37;;;;;;;56.40;27.10;;;;;;;-4.67;85.96;99508.86;108564;282;154240;-72
2023/12/01 11:25:31;;;;;;;57.30;25.80;;;;;;;-4.68;85.89;99504.09;108703;283;38377;-73
2023/12/01 11:28:09;;;;;;;57.30;28.70;;;;;;;-4.65;86.15;99497.66;108538;283;154872;-70
2023/12/01 11:31:09;;;;;;;57.50;28.40;;;;;;;-4.57;86.27;99498.93;108681;283;38397;-70
2023/12/01 11:33:47;;;;;;;58.30;27.50;;;;;;;-4.52;86.23;99510.04;108626;282;154170;-72
2023/12/01 11:36:34;;;;;;;60.90;30.40;;;;;;;-4.52;86.04;99509.69;108697;283;38223;-72
2023/12/01 11:39:31;;;;;;;63.30;31.00;;;;;;;-4.51;86.13;99506.98;108585;283;38811;-71
2023/12/01 11:42:19;;;;;;;61.10;30.60;;;;;;;-4.52;86.07;99501.17;108552;283;38467;-70
2023/12/01 11:44:58;;;;;;;62.30;27.60;;;;;;;-4.53;85.82;99499.63;108686;283;38914;-70
2023/12/01 11:47:32;;;;;;;57.80;27.90;;;;;;;-4.50;86.02;99502.21;108523;282;178636;-71
2023/12/01 11:50:09;;;;;;;54.70;26.30;;;;;;;-4.46;85.96;99503.61;108720;282;38314;-71
2023/12/01 11:52:51;;;;;;;54.20;26.10;;;;;;;-4.43;86.03;99503.14;108592;282;153830;-72
2023/12/01 11:55:30;;;;;;;54.30;27.50;;;;;;;-4.36;86.68;99504.20;108709;282;39330;-74
2023/12/01 11:58:08;;;;;;;50.90;23.60;;;;;;;-4.32;86.60;99507.14;108604;282;154359;-73
2023/12/01 12:00:44;;;;;;;52.10;25.20;;;;;;;-4.28;86.27;99518.92;108619;283;38164;-72